Portada
METAR-TAF:

METAR-TAF

Aeroports :

Calais, França

latitud: 50-57-39N, longitud: 001-57-05E, altitud: 4 m

Observació

L'informe es va fer fa 10 minuts, a les 04:00 UTC
Vent 24 kt del Nord/Nord-Est amb ràfegues de 37 kt
Temperatura 6°C
Humitat 45%
Pressió 1031 hPa
Visibilitat 10 km o més
Escasses núvols a una alçada de 4300 ft
Cel cobert a una alçada de 5600 ft

METAR: LFAC 290400Z AUTO 03024G37KT 9999 FEW043 OVC056 06/M05 Q1031

Hora: 06:10 (04:10 UTC)


TAF: manca

Observacions i pronòstics meteorològics de més de 4000 aeroports (METAR i TAF).

Les estacions disponibles són els punts grocs i vermells al mapa.

Posi el ratolí al punt desitjat per veure el nom de l'estació.

Feu clic per veure les observacions i els pronòstics meteorològics.

Per canviar el mapa: feu clic els botons verds amb una creu de color negre per apropar; al botó verd amb un guió per allunyar la imatge; o en les fletxes verdes per a mapes adjacents.


METAR-TAF: